sensor_id;sensor_type;location;lat;lon;timestamp;temperature;humidity
27540;DHT22;15906;52.046;4.724;2023-06-22T00:01:04;18.00;99.90
27540;DHT22;15906;52.046;4.724;2023-06-22T00:03:30;18.00;99.90
27540;DHT22;15906;52.046;4.724;2023-06-22T00:05:56;18.00;99.90
27540;DHT22;15906;52.046;4.724;2023-06-22T00:08:22;18.00;99.90
27540;DHT22;15906;52.046;4.724;2023-06-22T00:10:47;18.00;99.90
27540;DHT22;15906;52.046;4.724;2023-06-22T00:13:14;18.00;99.90
27540;DHT22;15906;52.046;4.724;2023-06-22T00:15:41;18.00;99.90
27540;DHT22;15906;52.046;4.724;2023-06-22T00:18:07;18.00;99.90
27540;DHT22;15906;52.046;4.724;2023-06-22T00:20:33;17.90;99.90
27540;DHT22;15906;52.046;4.724;2023-06-22T00:23:03;17.90;99.90
27540;DHT22;15906;52.046;4.724;2023-06-22T00:25:40;17.80;99.90
27540;DHT22;15906;52.046;4.724;2023-06-22T00:28:06;17.70;99.90
27540;DHT22;15906;52.046;4.724;2023-06-22T00:30:33;17.70;99.90
27540;DHT22;15906;52.046;4.724;2023-06-22T00:32:59;17.70;99.90
27540;DHT22;15906;52.046;4.724;2023-06-22T00:35:25;17.70;99.90
27540;DHT22;15906;52.046;4.724;2023-06-22T00:37:58;17.70;99.90
27540;DHT22;15906;52.046;4.724;2023-06-22T00:40:32;17.70;99.90
27540;DHT22;15906;52.046;4.724;2023-06-22T00:42:58;17.70;99.90
27540;DHT22;15906;52.046;4.724;2023-06-22T00:45:24;17.70;99.90
27540;DHT22;15906;52.046;4.724;2023-06-22T00:47:56;17.70;99.90
27540;DHT22;15906;52.046;4.724;2023-06-22T00:50:24;17.70;99.90
27540;DHT22;15906;52.046;4.724;2023-06-22T00:52:56;17.60;99.90
27540;DHT22;15906;52.046;4.724;2023-06-22T00:55:23;17.70;99.90
27540;DHT22;15906;52.046;4.724;2023-06-22T00:57:48;17.60;99.90
27540;DHT22;15906;52.046;4.724;2023-06-22T01:00:18;17.70;99.90
27540;DHT22;15906;52.046;4.724;2023-06-22T01:02:45;17.60;99.90
27540;DHT22;15906;52.046;4.724;2023-06-22T01:05:13;17.60;99.90
27540;DHT22;15906;52.046;4.724;2023-06-22T01:08:08;17.60;99.90
27540;DHT22;15906;52.046;4.724;2023-06-22T01:18:23;17.60;99.90
27540;DHT22;15906;52.046;4.724;2023-06-22T01:20:55;17.50;99.90
27540;DHT22;15906;52.046;4.724;2023-06-22T01:26:19;17.50;99.90
27540;DHT22;15906;52.046;4.724;2023-06-22T01:28:53;17.40;99.90
27540;DHT22;15906;52.046;4.724;2023-06-22T01:31:22;17.40;99.90
27540;DHT22;15906;52.046;4.724;2023-06-22T01:33:53;17.40;99.90
27540;DHT22;15906;52.046;4.724;2023-06-22T01:36:19;17.50;99.90
27540;DHT22;15906;52.046;4.724;2023-06-22T01:38:47;17.40;99.90
27540;DHT22;15906;52.046;4.724;2023-06-22T01:41:12;17.40;99.90
27540;DHT22;15906;52.046;4.724;2023-06-22T01:43:39;17.30;99.90
27540;DHT22;15906;52.046;4.724;2023-06-22T01:46:05;17.40;99.90
27540;DHT22;15906;52.046;4.724;2023-06-22T01:48:31;17.30;99.90
27540;DHT22;15906;52.046;4.724;2023-06-22T01:50:57;17.30;99.90
27540;DHT22;15906;52.046;4.724;2023-06-22T01:53:24;17.30;99.90
27540;DHT22;15906;52.046;4.724;2023-06-22T01:55:50;17.30;99.90
27540;DHT22;15906;52.046;4.724;2023-06-22T01:58:15;17.20;99.90
27540;DHT22;15906;52.046;4.724;2023-06-22T02:00:47;17.20;99.90
27540;DHT22;15906;52.046;4.724;2023-06-22T02:03:19;17.20;99.90
27540;DHT22;15906;52.046;4.724;2023-06-22T02:05:50;17.20;99.90
27540;DHT22;15906;52.046;4.724;2023-06-22T02:08:25;17.10;99.90
27540;DHT22;15906;52.046;4.724;2023-06-22T02:10:54;17.10;99.90
27540;DHT22;15906;52.046;4.724;2023-06-22T02:13:20;17.10;99.90
27540;DHT22;15906;52.046;4.724;2023-06-22T02:15:47;17.10;99.90
27540;DHT22;15906;52.046;4.724;2023-06-22T02:18:13;17.10;99.90
27540;DHT22;15906;52.046;4.724;2023-06-22T02:20:39;17.10;99.90
27540;DHT22;15906;52.046;4.724;2023-06-22T02:23:06;17.10;99.90
27540;DHT22;15906;52.046;4.724;2023-06-22T02:25:32;17.00;99.90
27540;DHT22;15906;52.046;4.724;2023-06-22T02:27:59;17.10;99.90
27540;DHT22;15906;52.046;4.724;2023-06-22T02:30:24;16.90;99.90
27540;DHT22;15906;52.046;4.724;2023-06-22T02:32:50;17.00;99.90
27540;DHT22;15906;52.046;4.724;2023-06-22T02:35:27;16.90;99.90
27540;DHT22;15906;52.046;4.724;2023-06-22T02:38:00;17.00;99.90
27540;DHT22;15906;52.046;4.724;2023-06-22T02:40:26;16.90;99.90
27540;DHT22;15906;52.046;4.724;2023-06-22T02:42:52;17.00;99.90
27540;DHT22;15906;52.046;4.724;2023-06-22T02:45:17;16.90;99.90
27540;DHT22;15906;52.046;4.724;2023-06-22T02:47:43;16.90;99.90
27540;DHT22;15906;52.046;4.724;2023-06-22T02:50:09;16.90;99.90
27540;DHT22;15906;52.046;4.724;2023-06-22T02:52:35;16.90;99.90
27540;DHT22;15906;52.046;4.724;2023-06-22T02:55:00;16.90;99.90
27540;DHT22;15906;52.046;4.724;2023-06-22T02:57:26;16.90;99.90
27540;DHT22;15906;52.046;4.724;2023-06-22T02:59:51;16.90;99.90
27540;DHT22;15906;52.046;4.724;2023-06-22T03:02:17;16.80;99.90
27540;DHT22;15906;52.046;4.724;2023-06-22T03:04:43;16.90;99.90
27540;DHT22;15906;52.046;4.724;2023-06-22T03:07:09;16.80;99.90
27540;DHT22;15906;52.046;4.724;2023-06-22T03:09:34;16.80;99.90
27540;DHT22;15906;52.046;4.724;2023-06-22T03:12:00;16.80;99.90
27540;DHT22;15906;52.046;4.724;2023-06-22T03:14:27;16.80;99.90
27540;DHT22;15906;52.046;4.724;2023-06-22T03:16:53;16.70;99.90
27540;DHT22;15906;52.046;4.724;2023-06-22T03:19:18;16.70;99.90
27540;DHT22;15906;52.046;4.724;2023-06-22T03:21:44;16.70;99.90
27540;DHT22;15906;52.046;4.724;2023-06-22T03:24:10;16.60;99.90
27540;DHT22;15906;52.046;4.724;2023-06-22T03:26:35;16.70;99.90
27540;DHT22;15906;52.046;4.724;2023-06-22T03:29:01;16.50;99.90
27540;DHT22;15906;52.046;4.724;2023-06-22T03:31:26;16.50;99.90
27540;DHT22;15906;52.046;4.724;2023-06-22T03:33:52;16.40;99.90
27540;DHT22;15906;52.046;4.724;2023-06-22T03:36:18;16.60;99.90
27540;DHT22;15906;52.046;4.724;2023-06-22T03:38:48;16.60;99.90
27540;DHT22;15906;52.046;4.724;2023-06-22T03:41:15;16.60;99.90
27540;DHT22;15906;52.046;4.724;2023-06-22T03:43:41;16.60;99.90
27540;DHT22;15906;52.046;4.724;2023-06-22T03:46:06;16.60;99.90
27540;DHT22;15906;52.046;4.724;2023-06-22T03:48:32;16.50;99.90
27540;DHT22;15906;52.046;4.724;2023-06-22T03:50:59;16.60;99.90
27540;DHT22;15906;52.046;4.724;2023-06-22T03:53:25;16.60;99.90
27540;DHT22;15906;52.046;4.724;2023-06-22T03:55:52;16.60;99.90
27540;DHT22;15906;52.046;4.724;2023-06-22T03:58:19;16.70;99.90
27540;DHT22;15906;52.046;4.724;2023-06-22T04:00:49;16.60;99.90
27540;DHT22;15906;52.046;4.724;2023-06-22T04:03:15;16.60;99.90
27540;DHT22;15906;52.046;4.724;2023-06-22T04:05:41;16.60;99.90
27540;DHT22;15906;52.046;4.724;2023-06-22T04:08:07;16.60;99.90
27540;DHT22;15906;52.046;4.724;2023-06-22T04:10:33;16.70;99.90
27540;DHT22;15906;52.046;4.724;2023-06-22T04:12:58;16.70;99.90
27540;DHT22;15906;52.046;4.724;2023-06-22T04:15:24;16.70;99.90
27540;DHT22;15906;52.046;4.724;2023-06-22T04:17:49;16.70;99.90
27540;DHT22;15906;52.046;4.724;2023-06-22T04:20:15;16.80;99.90
27540;DHT22;15906;52.046;4.724;2023-06-22T04:22:40;16.80;99.90
27540;DHT22;15906;52.046;4.724;2023-06-22T04:25:06;16.80;99.90
27540;DHT22;15906;52.046;4.724;2023-06-22T04:27:34;16.80;99.90
27540;DHT22;15906;52.046;4.724;2023-06-22T04:30:07;16.90;99.90
27540;DHT22;15906;52.046;4.724;2023-06-22T04:32:36;16.90;99.90
27540;DHT22;15906;52.046;4.724;2023-06-22T04:35:05;16.90;99.90
27540;DHT22;15906;52.046;4.724;2023-06-22T04:37:32;17.00;99.90
27540;DHT22;15906;52.046;4.724;2023-06-22T04:39:58;17.00;99.90
27540;DHT22;15906;52.046;4.724;2023-06-22T04:42:28;17.00;99.90
27540;DHT22;15906;52.046;4.724;2023-06-22T04:44:53;17.10;99.90
27540;DHT22;15906;52.046;4.724;2023-06-22T04:47:19;17.00;99.90
27540;DHT22;15906;52.046;4.724;2023-06-22T04:49:45;17.20;99.90
27540;DHT22;15906;52.046;4.724;2023-06-22T04:52:12;17.20;99.90
27540;DHT22;15906;52.046;4.724;2023-06-22T04:54:39;17.20;99.90
27540;DHT22;15906;52.046;4.724;2023-06-22T04:57:06;17.20;99.90
27540;DHT22;15906;52.046;4.724;2023-06-22T04:59:35;17.30;99.90
27540;DHT22;15906;52.046;4.724;2023-06-22T05:02:02;17.50;99.90
27540;DHT22;15906;52.046;4.724;2023-06-22T05:04:29;17.40;99.90
27540;DHT22;15906;52.046;4.724;2023-06-22T05:06:57;17.50;99.90
27540;DHT22;15906;52.046;4.724;2023-06-22T05:09:23;17.50;99.90
27540;DHT22;15906;52.046;4.724;2023-06-22T05:11:50;17.60;99.90
27540;DHT22;15906;52.046;4.724;2023-06-22T05:14:16;17.70;99.90
27540;DHT22;15906;52.046;4.724;2023-06-22T05:16:42;17.70;99.90
27540;DHT22;15906;52.046;4.724;2023-06-22T05:19:08;17.70;99.90
27540;DHT22;15906;52.046;4.724;2023-06-22T05:21:34;17.80;99.90
27540;DHT22;15906;52.046;4.724;2023-06-22T05:24:00;17.90;99.90
27540;DHT22;15906;52.046;4.724;2023-06-22T05:26:27;17.90;99.90
27540;DHT22;15906;52.046;4.724;2023-06-22T05:28:53;18.00;99.90
27540;DHT22;15906;52.046;4.724;2023-06-22T05:31:19;18.20;99.90
27540;DHT22;15906;52.046;4.724;2023-06-22T05:33:46;18.30;99.90
27540;DHT22;15906;52.046;4.724;2023-06-22T05:36:12;18.40;99.90
27540;DHT22;15906;52.046;4.724;2023-06-22T05:38:39;18.50;99.90
27540;DHT22;15906;52.046;4.724;2023-06-22T05:41:04;18.60;99.90
27540;DHT22;15906;52.046;4.724;2023-06-22T05:43:30;18.70;99.90
27540;DHT22;15906;52.046;4.724;2023-06-22T05:45:56;18.70;99.90
27540;DHT22;15906;52.046;4.724;2023-06-22T05:48:22;18.80;99.90
27540;DHT22;15906;52.046;4.724;2023-06-22T05:50:47;18.80;99.90
27540;DHT22;15906;52.046;4.724;2023-06-22T05:53:13;18.80;99.90
27540;DHT22;15906;52.046;4.724;2023-06-22T05:55:38;18.90;99.90
27540;DHT22;15906;52.046;4.724;2023-06-22T05:58:04;18.90;99.90
27540;DHT22;15906;52.046;4.724;2023-06-22T06:00:30;19.00;99.90
27540;DHT22;15906;52.046;4.724;2023-06-22T06:02:55;19.10;99.90
27540;DHT22;15906;52.046;4.724;2023-06-22T06:05:21;19.30;99.90
27540;DHT22;15906;52.046;4.724;2023-06-22T06:07:48;19.30;99.90
27540;DHT22;15906;52.046;4.724;2023-06-22T06:10:14;19.20;99.90
27540;DHT22;15906;52.046;4.724;2023-06-22T06:12:39;19.40;99.90
27540;DHT22;15906;52.046;4.724;2023-06-22T06:15:05;19.40;99.90
27540;DHT22;15906;52.046;4.724;2023-06-22T06:17:31;19.40;99.90
27540;DHT22;15906;52.046;4.724;2023-06-22T06:19:58;19.40;99.90
27540;DHT22;15906;52.046;4.724;2023-06-22T06:22:23;19.30;99.90
27540;DHT22;15906;52.046;4.724;2023-06-22T06:24:49;19.50;99.90
27540;DHT22;15906;52.046;4.724;2023-06-22T06:27:15;19.50;99.90
27540;DHT22;15906;52.046;4.724;2023-06-22T06:29:43;19.50;99.90
27540;DHT22;15906;52.046;4.724;2023-06-22T06:32:11;19.50;99.90
27540;DHT22;15906;52.046;4.724;2023-06-22T06:34:36;19.50;99.90
27540;DHT22;15906;52.046;4.724;2023-06-22T06:37:02;19.60;99.90
27540;DHT22;15906;52.046;4.724;2023-06-22T06:39:27;19.60;99.90
27540;DHT22;15906;52.046;4.724;2023-06-22T06:41:53;19.80;99.90
27540;DHT22;15906;52.046;4.724;2023-06-22T06:44:18;19.90;99.90
27540;DHT22;15906;52.046;4.724;2023-06-22T06:46:44;20.00;99.90
27540;DHT22;15906;52.046;4.724;2023-06-22T06:49:09;20.00;99.90
27540;DHT22;15906;52.046;4.724;2023-06-22T06:51:35;20.20;99.90
27540;DHT22;15906;52.046;4.724;2023-06-22T06:54:01;20.20;99.90
27540;DHT22;15906;52.046;4.724;2023-06-22T06:56:28;20.50;99.90
27540;DHT22;15906;52.046;4.724;2023-06-22T06:58:54;20.60;99.90
27540;DHT22;15906;52.046;4.724;2023-06-22T07:01:20;20.80;99.90
27540;DHT22;15906;52.046;4.724;2023-06-22T07:03:46;20.90;99.90
27540;DHT22;15906;52.046;4.724;2023-06-22T07:06:12;21.00;99.90
27540;DHT22;15906;52.046;4.724;2023-06-22T07:08:38;21.10;99.90
27540;DHT22;15906;52.046;4.724;2023-06-22T07:11:05;21.20;99.90
27540;DHT22;15906;52.046;4.724;2023-06-22T07:13:30;21.30;99.90
27540;DHT22;15906;52.046;4.724;2023-06-22T07:15:56;21.50;99.90
27540;DHT22;15906;52.046;4.724;2023-06-22T07:18:22;21.70;99.90
27540;DHT22;15906;52.046;4.724;2023-06-22T07:20:47;21.90;99.90
27540;DHT22;15906;52.046;4.724;2023-06-22T07:23:13;22.30;99.90
27540;DHT22;15906;52.046;4.724;2023-06-22T07:25:38;22.50;99.90
27540;DHT22;15906;52.046;4.724;2023-06-22T07:28:06;22.60;99.90
27540;DHT22;15906;52.046;4.724;2023-06-22T07:30:33;22.70;99.90
27540;DHT22;15906;52.046;4.724;2023-06-22T07:32:59;22.80;99.90
27540;DHT22;15906;52.046;4.724;2023-06-22T07:35:29;23.10;99.90
27540;DHT22;15906;52.046;4.724;2023-06-22T07:37:55;23.30;99.90
27540;DHT22;15906;52.046;4.724;2023-06-22T07:40:20;23.40;99.90
27540;DHT22;15906;52.046;4.724;2023-06-22T07:42:46;23.70;99.90
27540;DHT22;15906;52.046;4.724;2023-06-22T07:45:13;23.80;99.90
27540;DHT22;15906;52.046;4.724;2023-06-22T07:47:39;23.90;99.90
27540;DHT22;15906;52.046;4.724;2023-06-22T07:50:05;24.00;99.90
27540;DHT22;15906;52.046;4.724;2023-06-22T07:52:31;23.90;99.90
27540;DHT22;15906;52.046;4.724;2023-06-22T07:54:57;23.80;99.90
27540;DHT22;15906;52.046;4.724;2023-06-22T07:57:22;23.80;99.90
27540;DHT22;15906;52.046;4.724;2023-06-22T07:59:48;23.70;99.90
27540;DHT22;15906;52.046;4.724;2023-06-22T08:02:13;23.70;99.90
27540;DHT22;15906;52.046;4.724;2023-06-22T08:04:39;23.60;99.90
27540;DHT22;15906;52.046;4.724;2023-06-22T08:07:06;23.60;99.90
27540;DHT22;15906;52.046;4.724;2023-06-22T08:09:32;23.80;99.90
27540;DHT22;15906;52.046;4.724;2023-06-22T08:11:58;23.90;99.90
27540;DHT22;15906;52.046;4.724;2023-06-22T08:14:25;23.90;99.90
27540;DHT22;15906;52.046;4.724;2023-06-22T08:16:51;24.00;99.90
27540;DHT22;15906;52.046;4.724;2023-06-22T08:19:17;24.10;99.90
27540;DHT22;15906;52.046;4.724;2023-06-22T08:21:43;24.10;99.90
27540;DHT22;15906;52.046;4.724;2023-06-22T08:24:08;24.20;99.90
27540;DHT22;15906;52.046;4.724;2023-06-22T08:26:34;24.40;99.90
27540;DHT22;15906;52.046;4.724;2023-06-22T08:29:04;24.50;99.90
27540;DHT22;15906;52.046;4.724;2023-06-22T08:31:31;24.60;99.90
27540;DHT22;15906;52.046;4.724;2023-06-22T08:33:58;24.60;99.90
27540;DHT22;15906;52.046;4.724;2023-06-22T08:36:24;24.80;99.90
27540;DHT22;15906;52.046;4.724;2023-06-22T08:38:50;24.90;99.90
27540;DHT22;15906;52.046;4.724;2023-06-22T08:41:17;25.10;99.90
27540;DHT22;15906;52.046;4.724;2023-06-22T08:43:43;25.10;99.90
27540;DHT22;15906;52.046;4.724;2023-06-22T08:46:10;25.30;99.90
27540;DHT22;15906;52.046;4.724;2023-06-22T08:48:36;25.30;99.90
27540;DHT22;15906;52.046;4.724;2023-06-22T08:51:01;25.30;99.90
27540;DHT22;15906;52.046;4.724;2023-06-22T08:53:27;25.50;99.90
27540;DHT22;15906;52.046;4.724;2023-06-22T08:55:53;25.40;99.90
27540;DHT22;15906;52.046;4.724;2023-06-22T08:58:18;25.40;99.90
27540;DHT22;15906;52.046;4.724;2023-06-22T09:00:45;25.40;99.90
27540;DHT22;15906;52.046;4.724;2023-06-22T09:03:11;25.50;99.90
27540;DHT22;15906;52.046;4.724;2023-06-22T09:05:37;25.40;99.90
27540;DHT22;15906;52.046;4.724;2023-06-22T09:08:03;24.90;99.90
27540;DHT22;15906;52.046;4.724;2023-06-22T09:10:29;24.60;99.90
27540;DHT22;15906;52.046;4.724;2023-06-22T09:12:54;24.60;99.90
27540;DHT22;15906;52.046;4.724;2023-06-22T09:15:20;24.70;99.90
27540;DHT22;15906;52.046;4.724;2023-06-22T09:17:46;24.50;99.90
27540;DHT22;15906;52.046;4.724;2023-06-22T09:20:12;24.50;99.90
27540;DHT22;15906;52.046;4.724;2023-06-22T09:22:37;24.30;99.90
27540;DHT22;15906;52.046;4.724;2023-06-22T09:25:04;24.30;99.90
27540;DHT22;15906;52.046;4.724;2023-06-22T09:27:30;24.30;99.90
27540;DHT22;15906;52.046;4.724;2023-06-22T09:29:55;24.40;99.90
27540;DHT22;15906;52.046;4.724;2023-06-22T09:32:23;24.50;99.90
27540;DHT22;15906;52.046;4.724;2023-06-22T09:34:49;24.50;99.90
27540;DHT22;15906;52.046;4.724;2023-06-22T09:37:15;24.30;99.90
27540;DHT22;15906;52.046;4.724;2023-06-22T09:39:40;24.40;99.90
27540;DHT22;15906;52.046;4.724;2023-06-22T09:42:06;24.20;99.90
27540;DHT22;15906;52.046;4.724;2023-06-22T09:44:32;24.20;99.90
27540;DHT22;15906;52.046;4.724;2023-06-22T09:46:57;24.10;99.90
27540;DHT22;15906;52.046;4.724;2023-06-22T09:49:23;24.00;99.90
27540;DHT22;15906;52.046;4.724;2023-06-22T09:51:48;23.80;99.90
27540;DHT22;15906;52.046;4.724;2023-06-22T09:54:15;23.70;99.90
27540;DHT22;15906;52.046;4.724;2023-06-22T09:56:40;23.80;99.90
27540;DHT22;15906;52.046;4.724;2023-06-22T09:59:06;23.90;99.90
27540;DHT22;15906;52.046;4.724;2023-06-22T10:01:31;23.90;99.90
27540;DHT22;15906;52.046;4.724;2023-06-22T10:03:57;23.90;99.90
27540;DHT22;15906;52.046;4.724;2023-06-22T10:06:23;23.80;99.90
27540;DHT22;15906;52.046;4.724;2023-06-22T10:08:51;23.90;99.90
27540;DHT22;15906;52.046;4.724;2023-06-22T10:11:16;24.10;99.90
27540;DHT22;15906;52.046;4.724;2023-06-22T10:13:42;24.10;99.90
27540;DHT22;15906;52.046;4.724;2023-06-22T10:16:08;24.10;99.90
27540;DHT22;15906;52.046;4.724;2023-06-22T10:18:33;23.90;99.90
27540;DHT22;15906;52.046;4.724;2023-06-22T10:20:59;23.90;99.90
27540;DHT22;15906;52.046;4.724;2023-06-22T10:23:25;23.90;99.90
27540;DHT22;15906;52.046;4.724;2023-06-22T10:25:50;23.70;99.90
27540;DHT22;15906;52.046;4.724;2023-06-22T10:28:16;23.90;99.90
27540;DHT22;15906;52.046;4.724;2023-06-22T10:30:42;23.90;99.90
27540;DHT22;15906;52.046;4.724;2023-06-22T10:33:09;23.80;99.90
27540;DHT22;15906;52.046;4.724;2023-06-22T10:35:35;23.80;99.90
27540;DHT22;15906;52.046;4.724;2023-06-22T10:38:03;23.70;99.90
27540;DHT22;15906;52.046;4.724;2023-06-22T10:40:28;23.60;99.90
27540;DHT22;15906;52.046;4.724;2023-06-22T10:42:54;23.50;99.90
27540;DHT22;15906;52.046;4.724;2023-06-22T10:45:19;23.40;99.90
27540;DHT22;15906;52.046;4.724;2023-06-22T10:47:45;23.40;99.90
27540;DHT22;15906;52.046;4.724;2023-06-22T10:50:11;23.40;99.90
27540;DHT22;15906;52.046;4.724;2023-06-22T10:52:37;23.40;99.90
27540;DHT22;15906;52.046;4.724;2023-06-22T10:55:03;23.40;99.90
27540;DHT22;15906;52.046;4.724;2023-06-22T10:57:29;23.40;99.90
27540;DHT22;15906;52.046;4.724;2023-06-22T10:59:54;23.50;99.90
27540;DHT22;15906;52.046;4.724;2023-06-22T11:02:20;23.40;99.90
27540;DHT22;15906;52.046;4.724;2023-06-22T11:04:45;23.40;99.90
27540;DHT22;15906;52.046;4.724;2023-06-22T11:07:13;23.40;99.90
27540;DHT22;15906;52.046;4.724;2023-06-22T11:09:39;23.40;99.90
27540;DHT22;15906;52.046;4.724;2023-06-22T11:12:05;23.30;99.90
27540;DHT22;15906;52.046;4.724;2023-06-22T11:14:31;23.30;99.90
27540;DHT22;15906;52.046;4.724;2023-06-22T11:16:56;23.20;99.90
27540;DHT22;15906;52.046;4.724;2023-06-22T11:19:22;23.20;99.90
27540;DHT22;15906;52.046;4.724;2023-06-22T11:21:47;23.40;99.90
27540;DHT22;15906;52.046;4.724;2023-06-22T11:24:13;23.20;99.90
27540;DHT22;15906;52.046;4.724;2023-06-22T11:26:39;23.20;99.90
27540;DHT22;15906;52.046;4.724;2023-06-22T11:29:04;23.20;99.90
27540;DHT22;15906;52.046;4.724;2023-06-22T11:31:31;23.10;99.90
27540;DHT22;15906;52.046;4.724;2023-06-22T11:33:57;23.10;99.90
27540;DHT22;15906;52.046;4.724;2023-06-22T11:36:23;23.10;99.90
27540;DHT22;15906;52.046;4.724;2023-06-22T11:38:48;23.10;99.90
27540;DHT22;15906;52.046;4.724;2023-06-22T11:41:14;23.10;99.90
27540;DHT22;15906;52.046;4.724;2023-06-22T11:43:39;23.10;99.90
27540;DHT22;15906;52.046;4.724;2023-06-22T11:46:05;23.20;99.90
27540;DHT22;15906;52.046;4.724;2023-06-22T11:48:31;23.20;99.90
27540;DHT22;15906;52.046;4.724;2023-06-22T11:50:57;23.20;99.90
27540;DHT22;15906;52.046;4.724;2023-06-22T11:53:24;23.20;99.90
27540;DHT22;15906;52.046;4.724;2023-06-22T11:55:50;23.20;99.90
27540;DHT22;15906;52.046;4.724;2023-06-22T11:58:16;23.10;99.90
27540;DHT22;15906;52.046;4.724;2023-06-22T12:00:41;23.10;99.90
27540;DHT22;15906;52.046;4.724;2023-06-22T12:03:07;23.00;99.90
27540;DHT22;15906;52.046;4.724;2023-06-22T12:05:33;23.10;99.90
27540;DHT22;15906;52.046;4.724;2023-06-22T12:07:58;22.80;99.90
27540;DHT22;15906;52.046;4.724;2023-06-22T12:10:25;23.00;99.90
27540;DHT22;15906;52.046;4.724;2023-06-22T12:12:51;22.90;99.90
27540;DHT22;15906;52.046;4.724;2023-06-22T12:15:17;23.00;99.90
27540;DHT22;15906;52.046;4.724;2023-06-22T12:17:42;22.90;99.90
27540;DHT22;15906;52.046;4.724;2023-06-22T12:20:08;22.90;99.90
27540;DHT22;15906;52.046;4.724;2023-06-22T12:22:34;22.90;99.90
27540;DHT22;15906;52.046;4.724;2023-06-22T12:25:01;22.80;99.90
27540;DHT22;15906;52.046;4.724;2023-06-22T12:27:27;22.80;99.90
27540;DHT22;15906;52.046;4.724;2023-06-22T12:29:52;22.80;99.90
27540;DHT22;15906;52.046;4.724;2023-06-22T12:32:18;22.80;99.90
27540;DHT22;15906;52.046;4.724;2023-06-22T12:34:43;22.80;99.90
27540;DHT22;15906;52.046;4.724;2023-06-22T12:37:09;22.70;99.90
27540;DHT22;15906;52.046;4.724;2023-06-22T12:39:35;22.80;99.90
27540;DHT22;15906;52.046;4.724;2023-06-22T12:42:01;22.80;99.90
27540;DHT22;15906;52.046;4.724;2023-06-22T12:44:26;22.70;99.90
27540;DHT22;15906;52.046;4.724;2023-06-22T12:46:52;22.70;99.90
27540;DHT22;15906;52.046;4.724;2023-06-22T12:49:17;22.60;99.90
27540;DHT22;15906;52.046;4.724;2023-06-22T12:51:43;22.60;99.90
27540;DHT22;15906;52.046;4.724;2023-06-22T12:54:10;22.60;99.90
27540;DHT22;15906;52.046;4.724;2023-06-22T12:56:35;22.60;99.90
27540;DHT22;15906;52.046;4.724;2023-06-22T12:59:01;22.50;99.90
27540;DHT22;15906;52.046;4.724;2023-06-22T13:01:32;22.50;99.90
27540;DHT22;15906;52.046;4.724;2023-06-22T13:03:58;22.50;99.90
27540;DHT22;15906;52.046;4.724;2023-06-22T13:06:25;22.50;99.90
27540;DHT22;15906;52.046;4.724;2023-06-22T13:08:50;22.50;99.90
27540;DHT22;15906;52.046;4.724;2023-06-22T13:11:16;22.60;99.90
27540;DHT22;15906;52.046;4.724;2023-06-22T13:13:43;22.60;99.90
27540;DHT22;15906;52.046;4.724;2023-06-22T13:16:08;22.60;99.90
27540;DHT22;15906;52.046;4.724;2023-06-22T13:18:34;22.50;99.90
27540;DHT22;15906;52.046;4.724;2023-06-22T13:21:04;22.40;99.90
27540;DHT22;15906;52.046;4.724;2023-06-22T13:23:30;22.40;99.90
27540;DHT22;15906;52.046;4.724;2023-06-22T13:25:55;22.40;99.90
27540;DHT22;15906;52.046;4.724;2023-06-22T13:28:21;22.30;99.90
27540;DHT22;15906;52.046;4.724;2023-06-22T13:30:47;22.30;99.90
27540;DHT22;15906;52.046;4.724;2023-06-22T13:33:13;22.30;99.90
27540;DHT22;15906;52.046;4.724;2023-06-22T13:35:39;22.20;99.90
27540;DHT22;15906;52.046;4.724;2023-06-22T13:38:05;22.10;99.90
27540;DHT22;15906;52.046;4.724;2023-06-22T13:40:30;22.20;99.90
27540;DHT22;15906;52.046;4.724;2023-06-22T13:42:56;22.10;99.90
27540;DHT22;15906;52.046;4.724;2023-06-22T13:45:22;22.10;99.90
27540;DHT22;15906;52.046;4.724;2023-06-22T13:47:47;22.00;99.90
27540;DHT22;15906;52.046;4.724;2023-06-22T13:50:13;22.10;99.90
27540;DHT22;15906;52.046;4.724;2023-06-22T13:52:39;22.10;99.90
27540;DHT22;15906;52.046;4.724;2023-06-22T13:55:05;22.00;99.90
27540;DHT22;15906;52.046;4.724;2023-06-22T13:57:32;22.00;99.90
27540;DHT22;15906;52.046;4.724;2023-06-22T13:59:59;22.00;99.90
27540;DHT22;15906;52.046;4.724;2023-06-22T14:02:26;21.90;99.90
27540;DHT22;15906;52.046;4.724;2023-06-22T14:04:52;21.90;99.90
27540;DHT22;15906;52.046;4.724;2023-06-22T14:07:17;21.90;99.90
27540;DHT22;15906;52.046;4.724;2023-06-22T14:09:44;21.90;99.90
27540;DHT22;15906;52.046;4.724;2023-06-22T14:12:10;21.80;99.90
27540;DHT22;15906;52.046;4.724;2023-06-22T14:14:36;21.70;99.90
27540;DHT22;15906;52.046;4.724;2023-06-22T14:17:03;21.70;99.90
27540;DHT22;15906;52.046;4.724;2023-06-22T14:19:28;21.60;99.90
27540;DHT22;15906;52.046;4.724;2023-06-22T14:21:54;21.60;99.90
27540;DHT22;15906;52.046;4.724;2023-06-22T14:24:19;21.60;99.90
27540;DHT22;15906;52.046;4.724;2023-06-22T14:26:45;21.30;99.90
27540;DHT22;15906;52.046;4.724;2023-06-22T14:29:10;21.20;99.90
27540;DHT22;15906;52.046;4.724;2023-06-22T14:31:36;21.20;99.90
27540;DHT22;15906;52.046;4.724;2023-06-22T14:34:02;21.10;99.90
27540;DHT22;15906;52.046;4.724;2023-06-22T14:36:28;20.90;99.90
27540;DHT22;15906;52.046;4.724;2023-06-22T14:38:54;21.10;99.90
27540;DHT22;15906;52.046;4.724;2023-06-22T14:41:20;20.90;99.90
27540;DHT22;15906;52.046;4.724;2023-06-22T14:43:46;21.00;99.90
27540;DHT22;15906;52.046;4.724;2023-06-22T14:46:15;21.00;99.90
27540;DHT22;15906;52.046;4.724;2023-06-22T14:48:42;20.90;99.90
27540;DHT22;15906;52.046;4.724;2023-06-22T14:51:08;20.80;99.90
27540;DHT22;15906;52.046;4.724;2023-06-22T14:53:35;20.80;99.90
27540;DHT22;15906;52.046;4.724;2023-06-22T14:56:01;20.80;99.90
27540;DHT22;15906;52.046;4.724;2023-06-22T14:58:30;20.80;99.90
27540;DHT22;15906;52.046;4.724;2023-06-22T15:00:59;20.80;99.90
27540;DHT22;15906;52.046;4.724;2023-06-22T15:03:24;20.70;99.90
27540;DHT22;15906;52.046;4.724;2023-06-22T15:05:53;20.70;99.90
27540;DHT22;15906;52.046;4.724;2023-06-22T15:08:19;20.70;99.90
27540;DHT22;15906;52.046;4.724;2023-06-22T15:10:44;20.60;99.90
27540;DHT22;15906;52.046;4.724;2023-06-22T15:13:10;20.60;99.90
27540;DHT22;15906;52.046;4.724;2023-06-22T15:15:36;20.60;99.90
27540;DHT22;15906;52.046;4.724;2023-06-22T15:18:02;20.60;99.90
27540;DHT22;15906;52.046;4.724;2023-06-22T15:20:27;20.60;99.90
27540;DHT22;15906;52.046;4.724;2023-06-22T15:22:53;20.50;99.90
27540;DHT22;15906;52.046;4.724;2023-06-22T15:25:18;20.40;99.90
27540;DHT22;15906;52.046;4.724;2023-06-22T15:27:44;20.40;99.90
27540;DHT22;15906;52.046;4.724;2023-06-22T15:30:10;20.40;99.90
27540;DHT22;15906;52.046;4.724;2023-06-22T15:32:36;20.40;99.90
27540;DHT22;15906;52.046;4.724;2023-06-22T15:35:01;20.40;99.90